Nissos Kythnos — SVBI9 — position and weather

sailwx.info

Track history (hours):
 
Tides and Currents Weather Stations Pressure Air Temp Water Temp Dewpoint Dewpoint Depression Visibility Wind Speed Wind Dir Waves Ship Positions

Nissos Kythnos

Last reported at 2018-Feb-16 16:36 UTC. Time now 2018-Feb-18 03:33 UTC.
Position N 49°30' W 006°11'.

Length 249 m; draft 12.5 m.

Type: Tanker. MMSI: 241132000.

Date/timePositionNaut miles runAvg speedWind from/ knotsBaromVisibWave heightAir tempDewpointWater temp
2018-Feb-16 16:36N 49°30' W 006°11'10310.9
2018-Feb-16 07:14N 49°52' W 003°36'210.1
2018-Feb-16 07:00N 49°53' W 003°32'510.1
2018-Feb-16 06:29N 49°54' W 003°24'510.1
2018-Feb-16 06:00N 49°56' W 003°17'510.4
2018-Feb-16 05:30N 49°57' W 003°09'510.9
2018-Feb-16 05:00N 49°58' W 003°01'611.3
2018-Feb-16 04:30N 49°59' W 002°53'612.1
2018-Feb-16 04:00N 50°01' W 002°43'713.1
2018-Feb-16 03:29N 50°03' W 002°33'1614.5
2018-Feb-16 02:24N 50°07' W 002°10'615.3
2018-Feb-16 02:00N 50°08' W 002°01'815.3
2018-Feb-16 01:30N 50°10' W 001°49'714.9
2018-Feb-16 01:00N 50°12' W 001°38'714.2
2018-Feb-16 00:30N 50°14' W 001°27'713.4
2018-Feb-16 00:00N 50°15' W 001°17'2810.9
2018-Feb-15 21:27N 50°23' W 000°35'5 9.6
2018-Feb-15 20:58N 50°24' W 000°28'5 9.7
2018-Feb-15 20:30N 50°26' W 000°21'5 9.8
2018-Feb-15 20:00N 50°27' W 000°14'610.5
2018-Feb-15 19:27N 50°28' W 000°05'511.1
2018-Feb-15 19:00N 50°29' E 000°03'611.5
2018-Feb-15 18:31N 50°31' E 000°12'611.3
2018-Feb-15 18:00N 50°33' E 000°20'612.0
2018-Feb-15 17:30N 50°34' E 000°29'612.4
2018-Feb-15 17:00N 50°37' E 000°38'612.6
2018-Feb-15 16:30N 50°40' E 000°46'612.4
2018-Feb-15 16:00N 50°44' E 000°54'612.0
2018-Feb-15 15:30N 50°47' E 001°02'611.5
2018-Feb-15 15:00N 50°51' E 001°09'611.0
2018-Feb-15 14:30N 50°54' E 001°16'510.3
2018-Feb-15 14:00N 50°58' E 001°22'5 9.8
2018-Feb-15 13:30N 51°02' E 001°27'5 8.9
2018-Feb-15 13:00N 51°05' E 001°32'4 8.0
2018-Feb-15 12:30N 51°07' E 001°37'4 8.3
2018-Feb-15 12:00N 51°10' E 001°42'4 8.7
2018-Feb-15 11:30N 51°13' E 001°46'5 9.3
2018-Feb-15 11:00N 51°18' E 001°50'510.5
2018-Feb-15 10:30N 51°22' E 001°53'611.3
2018-Feb-15 10:00N 51°28' E 001°57'612.2
2018-Feb-15 09:30N 51°32' E 002°04'612.7
2018-Feb-15 09:00N 51°36' E 002°12'613.0
2018-Feb-15 08:30N 51°41' E 002°19'713.2
2018-Feb-15 07:59N 51°46' E 002°26'812.8
2018-Feb-15 07:22N 51°51' E 002°35'1911.3
2018-Feb-15 05:41N 52°02' E 003°01'1910.9
2018-Feb-15 03:54N 52°03' E 003°33'410.7
2018-Feb-15 03:29N 52°03' E 003°40'510.6
2018-Feb-15 03:00N 52°03' E 003°48'4 8.7
2018-Feb-15 02:30N 52°03' E 003°55'4 8.3
2018-Feb-15 02:00N 52°00' E 004°01'5 9.9
2018-Feb-15 01:30N 51°58' E 004°08'3 5.4
2018-Feb-15 01:00N 51°56' E 004°11'0 0.1
2018-Feb-15 00:29N 51°56' E 004°11'0 0.0
2018-Feb-14 23:53N 51°56' E 004°11'0 0.0
2018-Feb-14 23:29N 51°56' E 004°11'0 0.0
2018-Feb-14 22:59N 51°56' E 004°11'0 0.0
2018-Feb-14 22:26N 51°56' E 004°11'0 0.0
2018-Feb-14 21:59N 51°56' E 004°11'0 0.0
2018-Feb-14 21:29N 51°56' E 004°11'0 0.0
2018-Feb-14 20:56N 51°56' E 004°11'0 0.0
2018-Feb-14 20:26N 51°56' E 004°11'0 0.0
2018-Feb-14 19:56N 51°56' E 004°11'0 0.0
2018-Feb-14 19:29N 51°56' E 004°11'0 0.0
2018-Feb-14 18:59N 51°56' E 004°11'0 0.0
2018-Feb-14 18:29N 51°56' E 004°11'0 0.0
2018-Feb-14 17:59N 51°56' E 004°11'0 0.0
2018-Feb-14 17:29N 51°56' E 004°11'0 0.0
2018-Feb-14 16:53N 51°56' E 004°11'0 0.0
2018-Feb-14 16:29N 51°56' E 004°11'0 0.0
2018-Feb-14 15:56N 51°56' E 004°11'0 0.0
2018-Feb-14 15:29N 51°56' E 004°11'0 0.0
2018-Feb-14 14:59N 51°56' E 004°11'0 0.0
2018-Feb-14 14:29N 51°56' E 004°11'0 0.0
2018-Feb-14 13:56N 51°56' E 004°11'0 0.0
2018-Feb-14 13:26N 51°56' E 004°11'0 0.0
2018-Feb-14 12:59N 51°56' E 004°11'0 0.0
2018-Feb-14 12:29N 51°56' E 004°11'0 0.0
2018-Feb-14 11:59N 51°56' E 004°11'0 0.0
2018-Feb-14 11:26N 51°56' E 004°11'0 0.0
2018-Feb-14 10:56N 51°56' E 004°11'0 0.0
2018-Feb-14 10:29N 51°56' E 004°11'0 0.0
2018-Feb-14 09:59N 51°56' E 004°11'0 0.0
2018-Feb-14 09:29N 51°56' E 004°11'0 0.0
2018-Feb-14 08:59N 51°56' E 004°11'0 0.0
2018-Feb-14 08:23N 51°56' E 004°11'0 0.0
2018-Feb-14 07:59N 51°56' E 004°11'0 0.0
2018-Feb-14 07:26N 51°56' E 004°11'0 0.0
2018-Feb-14 06:56N 51°56' E 004°11'0 0.0
2018-Feb-14 06:29N 51°56' E 004°11'0 0.0
2018-Feb-14 05:59N 51°56' E 004°11'0 0.0
2018-Feb-14 05:29N 51°56' E 004°11'0 0.0
2018-Feb-14 04:59N 51°56' E 004°11'0 0.0
2018-Feb-14 04:29N 51°56' E 004°11'0 0.0
2018-Feb-14 03:56N 51°56' E 004°11'0 0.0
2018-Feb-14 03:29N 51°56' E 004°11'0 0.0
2018-Feb-14 02:59N 51°56' E 004°11'0 0.0
2018-Feb-14 02:29N 51°56' E 004°11'0 0.0
2018-Feb-14 01:59N 51°56' E 004°11'0 0.0
2018-Feb-14 01:29N 51°56' E 004°11'0 0.0
2018-Feb-14 00:50N 51°56' E 004°11'0 0.0
2018-Feb-14 00:29N 51°56' E 004°11'0 0.0
2018-Feb-13 23:56N 51°56' E 004°11'0 0.0
2018-Feb-13 23:26N 51°56' E 004°11'0 0.0
2018-Feb-13 22:59N 51°56' E 004°11'0 0.0
2018-Feb-13 22:29N 51°56' E 004°11'0 0.0
2018-Feb-13 21:59N 51°56' E 004°11'0 0.0
2018-Feb-13 21:29N 51°56' E 004°11'0 0.0
2018-Feb-13 20:59N 51°56' E 004°11'0 0.0
2018-Feb-13 20:29N 51°56' E 004°11'0 0.0
2018-Feb-13 19:59N 51°56' E 004°11'0 0.0
2018-Feb-13 19:29N 51°56' E 004°11'0 0.0
2018-Feb-13 18:59N 51°56' E 004°11'0 0.0
2018-Feb-13 18:29N 51°56' E 004°11'0 0.0
2018-Feb-13 17:59N 51°56' E 004°11'0 0.0
2018-Feb-13 17:29N 51°56' E 004°11'0 0.0
2018-Feb-13 16:59N 51°56' E 004°11'0 0.0
2018-Feb-13 16:29N 51°56' E 004°11'0 0.0
2018-Feb-13 15:59N 51°56' E 004°11'0 0.0
2018-Feb-13 15:29N 51°56' E 004°11'0 0.0
2018-Feb-13 14:59N 51°56' E 004°11'0 0.0
2018-Feb-13 14:26N 51°56' E 004°11'0 0.0
2018-Feb-13 13:59N 51°56' E 004°11'0 0.0
2018-Feb-13 13:29N 51°56' E 004°11'0 0.0
2018-Feb-13 12:59N 51°56' E 004°11'0 0.0
2018-Feb-13 12:29N 51°56' E 004°11'0 0.0
2018-Feb-13 11:59N 51°56' E 004°11'0 0.0
2018-Feb-13 11:26N 51°56' E 004°11'0 0.0
2018-Feb-13 10:59N 51°56' E 004°11'0 0.0
2018-Feb-13 10:29N 51°56' E 004°11'0 0.0
2018-Feb-13 09:59N 51°56' E 004°11'0 0.0
2018-Feb-13 09:29N 51°56' E 004°11'0 0.0
2018-Feb-13 08:59N 51°56' E 004°11'0 0.0
2018-Feb-13 08:29N 51°56' E 004°11'0 0.0
2018-Feb-13 07:59N 51°56' E 004°11'0 0.0
2018-Feb-13 07:29N 51°56' E 004°11'0 0.0
2018-Feb-13 06:59N 51°56' E 004°11'0 0.0
2018-Feb-13 06:29N 51°56' E 004°11'0 0.0
2018-Feb-13 05:59N 51°56' E 004°11'0 0.0
2018-Feb-13 05:29N 51°56' E 004°11'0 0.0
2018-Feb-13 04:59N 51°56' E 004°11'0 0.0
2018-Feb-13 04:29N 51°56' E 004°11'0 0.0
2018-Feb-13 04:01N 51°56' E 004°11'0 0.0
2018-Feb-13 03:31N 51°56' E 004°11'1 1.8
2018-Feb-13 03:00N 51°56' E 004°12'3 5.3
2018-Feb-13 02:31N 51°57' E 004°09'4 7.2
2018-Feb-13 02:00N 51°59' E 004°04'4 8.8
2018-Feb-13 01:31N 52°00' E 003°57'510.3
2018-Feb-13 01:00N 52°01' E 003°49'611.9
2018-Feb-13 00:30N 52°03' E 003°40'611.6
2018-Feb-13 00:00N 52°07' E 003°33'  
2018-Feb-10 18:43N 57°49' E 010°13'312.9
2018-Feb-10 18:31N 57°49' E 010°18'612.7
2018-Feb-10 18:01N 57°50' E 010°30'612.5
2018-Feb-10 17:31N 57°49' E 010°41'612.7
2018-Feb-10 17:01N 57°46' E 010°52'713.0
2018-Feb-10 16:30N 57°42' E 011°01'713.2
2018-Feb-10 16:01N 57°37' E 011°09'4 7.9
2018-Feb-10 15:30N 57°36' E 011°02'613.0
2018-Feb-10 15:01N 57°37' E 010°50'611.7
2018-Feb-10 14:30N 57°34' E 010°40'2 4.8
2018-Feb-10 14:00N 57°32' E 010°40'1 1.6
2018-Feb-10 13:30N 57°31' E 010°41'0 0.1
2018-Feb-10 12:59N 57°31' E 010°41'0 0.0
2018-Feb-10 12:20N 57°31' E 010°41'0 0.0
2018-Feb-10 11:59N 57°31' E 010°41'0 0.0
2018-Feb-10 11:29N 57°31' E 010°41'0 0.0
2018-Feb-10 10:56N 57°31' E 010°41'0 0.0
2018-Feb-10 10:29N 57°31' E 010°41'0 0.0
2018-Feb-10 09:59N 57°31' E 010°41'0 0.0
2018-Feb-10 09:29N 57°31' E 010°41'0 0.0
2018-Feb-10 08:59N 57°31' E 010°41'0 0.0
2018-Feb-10 08:29N 57°31' E 010°41'0 0.0
2018-Feb-10 07:59N 57°31' E 010°41'0 0.0
2018-Feb-10 07:29N 57°31' E 010°41'0 0.0
2018-Feb-10 06:53N 57°31' E 010°41'0 0.0
2018-Feb-10 06:23N 57°31' E 010°41'0 0.0
2018-Feb-10 05:59N 57°31' E 010°41'0 0.0
2018-Feb-10 05:29N 57°31' E 010°41'0 0.0
2018-Feb-10 04:59N 57°31' E 010°41'0 0.0
2018-Feb-10 04:26N 57°31' E 010°41'0 0.0
2018-Feb-10 03:56N 57°31' E 010°41'0 0.0
2018-Feb-10 03:23N 57°31' E 010°41'0 0.0
2018-Feb-10 02:59N 57°31' E 010°41'0 0.0
2018-Feb-10 02:29N 57°31' E 010°41'0 0.0
2018-Feb-10 01:59N 57°31' E 010°41'0 0.0
2018-Feb-10 01:29N 57°31' E 010°41'0 0.0
2018-Feb-10 00:56N 57°31' E 010°41'0 0.0
2018-Feb-10 00:29N 57°31' E 010°41'0 0.0
2018-Feb-09 23:59N 57°31' E 010°41'0 0.0
2018-Feb-09 23:29N 57°31' E 010°41'0 0.0
2018-Feb-09 22:59N 57°31' E 010°41'0 0.0
2018-Feb-09 22:41N 57°31' E 010°41'1 0.1
2018-Feb-09 07:30N 57°32' E 010°41'17 6.9
2018-Feb-09 05:00N 57°48' E 010°27'413 9.5
2018-Feb-07 09:28N 51°55' E 004°13'0 0.0
2018-Feb-07 08:58N 51°55' E 004°13'0 0.0
2018-Feb-07 08:28N 51°55' E 004°13'0 0.0
2018-Feb-07 07:58N 51°55' E 004°13'0 0.0
2018-Feb-07 07:28N 51°55' E 004°13'0 0.0
2018-Feb-07 06:58N 51°55' E 004°13'0 0.0
2018-Feb-07 06:28N 51°55' E 004°13'0 0.0
2018-Feb-07 05:58N 51°55' E 004°13'0 0.0
2018-Feb-07 05:28N 51°55' E 004°13'0 0.0
2018-Feb-07 04:58N 51°55' E 004°13'0 0.0
2018-Feb-07 04:28N 51°55' E 004°13'0 0.0
2018-Feb-07 03:58N 51°55' E 004°13'0 0.0
2018-Feb-07 03:28N 51°55' E 004°13'0 0.0
2018-Feb-07 02:58N 51°55' E 004°13'0 0.0
2018-Feb-07 02:28N 51°55' E 004°13'0 0.0
2018-Feb-07 01:58N 51°55' E 004°13'0 0.0
2018-Feb-07 01:28N 51°55' E 004°13'0 0.0
2018-Feb-07 00:58N 51°55' E 004°13'0 0.0
2018-Feb-07 00:28N 51°55' E 004°13'0 0.0
2018-Feb-06 23:58N 51°55' E 004°13'0 0.0
2018-Feb-06 23:28N 51°55' E 004°13'0 0.0
2018-Feb-06 22:58N 51°55' E 004°13'0 0.0
2018-Feb-06 22:25N 51°55' E 004°13'0 0.0
2018-Feb-06 21:58N 51°55' E 004°13'0 0.0
2018-Feb-06 21:28N 51°55' E 004°13'0 0.0
2018-Feb-06 20:58N 51°55' E 004°13'0 0.0
2018-Feb-06 20:28N 51°55' E 004°13'0 0.0
2018-Feb-06 19:58N 51°55' E 004°13'0 0.0
2018-Feb-06 19:28N 51°55' E 004°13'0 0.0
2018-Feb-06 18:58N 51°55' E 004°13'0 0.0
2018-Feb-06 18:28N 51°55' E 004°13'0 0.0
2018-Feb-06 17:58N 51°55' E 004°13'0 0.0
2018-Feb-06 17:28N 51°55' E 004°13'0 0.0
2018-Feb-06 16:58N 51°55' E 004°13'  
Track history (hours):
 
Tides and Currents Weather Stations Pressure Air Temp Water Temp Dewpoint Dewpoint Depression Visibility Wind Speed Wind Dir Waves Ship Positions

Nissos Kythnos

Last reported at 2018-Feb-16 16:36 UTC. Time now 2018-Feb-18 03:33 UTC.
Position N 49°30' W 006°11'.

Length 249 m; draft 12.5 m.

Type: Tanker. MMSI: 241132000.

Date/timePositionNaut miles runAvg speedWind from/ knotsBaromVisibWave heightAir tempDewpointWater temp
2018-Feb-16 16:36N 49°30' W 006°11'10310.9
2018-Feb-16 07:14N 49°52' W 003°36'210.1
2018-Feb-16 07:00N 49°53' W 003°32'510.1
2018-Feb-16 06:29N 49°54' W 003°24'510.1
2018-Feb-16 06:00N 49°56' W 003°17'510.4
2018-Feb-16 05:30N 49°57' W 003°09'510.9
2018-Feb-16 05:00N 49°58' W 003°01'611.3
2018-Feb-16 04:30N 49°59' W 002°53'612.1
2018-Feb-16 04:00N 50°01' W 002°43'713.1
2018-Feb-16 03:29N 50°03' W 002°33'1614.5
2018-Feb-16 02:24N 50°07' W 002°10'615.3
2018-Feb-16 02:00N 50°08' W 002°01'815.3
2018-Feb-16 01:30N 50°10' W 001°49'714.9
2018-Feb-16 01:00N 50°12' W 001°38'714.2
2018-Feb-16 00:30N 50°14' W 001°27'713.4
2018-Feb-16 00:00N 50°15' W 001°17'2810.9
2018-Feb-15 21:27N 50°23' W 000°35'5 9.6
2018-Feb-15 20:58N 50°24' W 000°28'5 9.7
2018-Feb-15 20:30N 50°26' W 000°21'5 9.8
2018-Feb-15 20:00N 50°27' W 000°14'610.5
2018-Feb-15 19:27N 50°28' W 000°05'511.1
2018-Feb-15 19:00N 50°29' E 000°03'611.5
2018-Feb-15 18:31N 50°31' E 000°12'611.3
2018-Feb-15 18:00N 50°33' E 000°20'612.0
2018-Feb-15 17:30N 50°34' E 000°29'612.4
2018-Feb-15 17:00N 50°37' E 000°38'612.6
2018-Feb-15 16:30N 50°40' E 000°46'612.4
2018-Feb-15 16:00N 50°44' E 000°54'612.0
2018-Feb-15 15:30N 50°47' E 001°02'611.5
2018-Feb-15 15:00N 50°51' E 001°09'611.0
2018-Feb-15 14:30N 50°54' E 001°16'510.3
2018-Feb-15 14:00N 50°58' E 001°22'5 9.8
2018-Feb-15 13:30N 51°02' E 001°27'5 8.9
2018-Feb-15 13:00N 51°05' E 001°32'4 8.0
2018-Feb-15 12:30N 51°07' E 001°37'4 8.3
2018-Feb-15 12:00N 51°10' E 001°42'4 8.7
2018-Feb-15 11:30N 51°13' E 001°46'5 9.3
2018-Feb-15 11:00N 51°18' E 001°50'510.5
2018-Feb-15 10:30N 51°22' E 001°53'611.3
2018-Feb-15 10:00N 51°28' E 001°57'612.2
2018-Feb-15 09:30N 51°32' E 002°04'612.7
2018-Feb-15 09:00N 51°36' E 002°12'613.0
2018-Feb-15 08:30N 51°41' E 002°19'713.2
2018-Feb-15 07:59N 51°46' E 002°26'812.8
2018-Feb-15 07:22N 51°51' E 002°35'1911.3
2018-Feb-15 05:41N 52°02' E 003°01'1910.9
2018-Feb-15 03:54N 52°03' E 003°33'410.7
2018-Feb-15 03:29N 52°03' E 003°40'510.6
2018-Feb-15 03:00N 52°03' E 003°48'4 8.7
2018-Feb-15 02:30N 52°03' E 003°55'4 8.3
2018-Feb-15 02:00N 52°00' E 004°01'5 9.9
2018-Feb-15 01:30N 51°58' E 004°08'3 5.4
2018-Feb-15 01:00N 51°56' E 004°11'0 0.1
2018-Feb-15 00:29N 51°56' E 004°11'0 0.0
2018-Feb-14 23:53N 51°56' E 004°11'0 0.0
2018-Feb-14 23:29N 51°56' E 004°11'0 0.0
2018-Feb-14 22:59N 51°56' E 004°11'0 0.0
2018-Feb-14 22:26N 51°56' E 004°11'0 0.0
2018-Feb-14 21:59N 51°56' E 004°11'0 0.0
2018-Feb-14 21:29N 51°56' E 004°11'0 0.0
2018-Feb-14 20:56N 51°56' E 004°11'0 0.0
2018-Feb-14 20:26N 51°56' E 004°11'0 0.0
2018-Feb-14 19:56N 51°56' E 004°11'0 0.0
2018-Feb-14 19:29N 51°56' E 004°11'0 0.0
2018-Feb-14 18:59N 51°56' E 004°11'0 0.0
2018-Feb-14 18:29N 51°56' E 004°11'0 0.0
2018-Feb-14 17:59N 51°56' E 004°11'0 0.0
2018-Feb-14 17:29N 51°56' E 004°11'0 0.0
2018-Feb-14 16:53N 51°56' E 004°11'0 0.0
2018-Feb-14 16:29N 51°56' E 004°11'0 0.0
2018-Feb-14 15:56N 51°56' E 004°11'0 0.0
2018-Feb-14 15:29N 51°56' E 004°11'0 0.0
2018-Feb-14 14:59N 51°56' E 004°11'0 0.0
2018-Feb-14 14:29N 51°56' E 004°11'0 0.0
2018-Feb-14 13:56N 51°56' E 004°11'0 0.0
2018-Feb-14 13:26N 51°56' E 004°11'0 0.0
2018-Feb-14 12:59N 51°56' E 004°11'0 0.0
2018-Feb-14 12:29N 51°56' E 004°11'0 0.0
2018-Feb-14 11:59N 51°56' E 004°11'0 0.0
2018-Feb-14 11:26N 51°56' E 004°11'0 0.0
2018-Feb-14 10:56N 51°56' E 004°11'0 0.0
2018-Feb-14 10:29N 51°56' E 004°11'0 0.0
2018-Feb-14 09:59N 51°56' E 004°11'0 0.0
2018-Feb-14 09:29N 51°56' E 004°11'0 0.0
2018-Feb-14 08:59N 51°56' E 004°11'0 0.0
2018-Feb-14 08:23N 51°56' E 004°11'0 0.0
2018-Feb-14 07:59N 51°56' E 004°11'0 0.0
2018-Feb-14 07:26N 51°56' E 004°11'0 0.0
2018-Feb-14 06:56N 51°56' E 004°11'0 0.0
2018-Feb-14 06:29N 51°56' E 004°11'0 0.0
2018-Feb-14 05:59N 51°56' E 004°11'0 0.0
2018-Feb-14 05:29N 51°56' E 004°11'0 0.0
2018-Feb-14 04:59N 51°56' E 004°11'0 0.0
2018-Feb-14 04:29N 51°56' E 004°11'0 0.0
2018-Feb-14 03:56N 51°56' E 004°11'0 0.0
2018-Feb-14 03:29N 51°56' E 004°11'0 0.0
2018-Feb-14 02:59N 51°56' E 004°11'0 0.0
2018-Feb-14 02:29N 51°56' E 004°11'0 0.0
2018-Feb-14 01:59N 51°56' E 004°11'0 0.0
2018-Feb-14 01:29N 51°56' E 004°11'0 0.0
2018-Feb-14 00:50N 51°56' E 004°11'0 0.0
2018-Feb-14 00:29N 51°56' E 004°11'0 0.0
2018-Feb-13 23:56N 51°56' E 004°11'0 0.0
2018-Feb-13 23:26N 51°56' E 004°11'0 0.0
2018-Feb-13 22:59N 51°56' E 004°11'0 0.0
2018-Feb-13 22:29N 51°56' E 004°11'0 0.0
2018-Feb-13 21:59N 51°56' E 004°11'0 0.0
2018-Feb-13 21:29N 51°56' E 004°11'0 0.0
2018-Feb-13 20:59N 51°56' E 004°11'0 0.0
2018-Feb-13 20:29N 51°56' E 004°11'0 0.0
2018-Feb-13 19:59N 51°56' E 004°11'0 0.0
2018-Feb-13 19:29N 51°56' E 004°11'0 0.0
2018-Feb-13 18:59N 51°56' E 004°11'0 0.0
2018-Feb-13 18:29N 51°56' E 004°11'0 0.0
2018-Feb-13 17:59N 51°56' E 004°11'0 0.0
2018-Feb-13 17:29N 51°56' E 004°11'0 0.0
2018-Feb-13 16:59N 51°56' E 004°11'0 0.0
2018-Feb-13 16:29N 51°56' E 004°11'0 0.0
2018-Feb-13 15:59N 51°56' E 004°11'0 0.0
2018-Feb-13 15:29N 51°56' E 004°11'0 0.0
2018-Feb-13 14:59N 51°56' E 004°11'0 0.0
2018-Feb-13 14:26N 51°56' E 004°11'0 0.0
2018-Feb-13 13:59N 51°56' E 004°11'0 0.0
2018-Feb-13 13:29N 51°56' E 004°11'0 0.0
2018-Feb-13 12:59N 51°56' E 004°11'0 0.0
2018-Feb-13 12:29N 51°56' E 004°11'0 0.0
2018-Feb-13 11:59N 51°56' E 004°11'0 0.0
2018-Feb-13 11:26N 51°56' E 004°11'0 0.0
2018-Feb-13 10:59N 51°56' E 004°11'0 0.0
2018-Feb-13 10:29N 51°56' E 004°11'0 0.0
2018-Feb-13 09:59N 51°56' E 004°11'0 0.0
2018-Feb-13 09:29N 51°56' E 004°11'0 0.0
2018-Feb-13 08:59N 51°56' E 004°11'0 0.0
2018-Feb-13 08:29N 51°56' E 004°11'0 0.0
2018-Feb-13 07:59N 51°56' E 004°11'0 0.0
2018-Feb-13 07:29N 51°56' E 004°11'0 0.0
2018-Feb-13 06:59N 51°56' E 004°11'0 0.0
2018-Feb-13 06:29N 51°56' E 004°11'0 0.0
2018-Feb-13 05:59N 51°56' E 004°11'0 0.0
2018-Feb-13 05:29N 51°56' E 004°11'0 0.0
2018-Feb-13 04:59N 51°56' E 004°11'0 0.0
2018-Feb-13 04:29N 51°56' E 004°11'0 0.0
2018-Feb-13 04:01N 51°56' E 004°11'0 0.0
2018-Feb-13 03:31N 51°56' E 004°11'1 1.8
2018-Feb-13 03:00N 51°56' E 004°12'3 5.3
2018-Feb-13 02:31N 51°57' E 004°09'4 7.2
2018-Feb-13 02:00N 51°59' E 004°04'4 8.8
2018-Feb-13 01:31N 52°00' E 003°57'510.3
2018-Feb-13 01:00N 52°01' E 003°49'611.9
2018-Feb-13 00:30N 52°03' E 003°40'611.6
2018-Feb-13 00:00N 52°07' E 003°33'  
2018-Feb-10 18:43N 57°49' E 010°13'312.9
2018-Feb-10 18:31N 57°49' E 010°18'612.7
2018-Feb-10 18:01N 57°50' E 010°30'612.5
2018-Feb-10 17:31N 57°49' E 010°41'612.7
2018-Feb-10 17:01N 57°46' E 010°52'713.0
2018-Feb-10 16:30N 57°42' E 011°01'713.2
2018-Feb-10 16:01N 57°37' E 011°09'4 7.9
2018-Feb-10 15:30N 57°36' E 011°02'613.0
2018-Feb-10 15:01N 57°37' E 010°50'611.7
2018-Feb-10 14:30N 57°34' E 010°40'2 4.8
2018-Feb-10 14:00N 57°32' E 010°40'1 1.6
2018-Feb-10 13:30N 57°31' E 010°41'0 0.1
2018-Feb-10 12:59N 57°31' E 010°41'0 0.0
2018-Feb-10 12:20N 57°31' E 010°41'0 0.0
2018-Feb-10 11:59N 57°31' E 010°41'0 0.0
2018-Feb-10 11:29N 57°31' E 010°41'0 0.0
2018-Feb-10 10:56N 57°31' E 010°41'0 0.0
2018-Feb-10 10:29N 57°31' E 010°41'0 0.0
2018-Feb-10 09:59N 57°31' E 010°41'0 0.0
2018-Feb-10 09:29N 57°31' E 010°41'0 0.0
2018-Feb-10 08:59N 57°31' E 010°41'0 0.0
2018-Feb-10 08:29N 57°31' E 010°41'0 0.0
2018-Feb-10 07:59N 57°31' E 010°41'0 0.0
2018-Feb-10 07:29N 57°31' E 010°41'0 0.0
2018-Feb-10 06:53N 57°31' E 010°41'0 0.0
2018-Feb-10 06:23N 57°31' E 010°41'0 0.0
2018-Feb-10 05:59N 57°31' E 010°41'0 0.0
2018-Feb-10 05:29N 57°31' E 010°41'0 0.0
2018-Feb-10 04:59N 57°31' E 010°41'0 0.0
2018-Feb-10 04:26N 57°31' E 010°41'0 0.0
2018-Feb-10 03:56N 57°31' E 010°41'0 0.0
2018-Feb-10 03:23N 57°31' E 010°41'0 0.0
2018-Feb-10 02:59N 57°31' E 010°41'0 0.0
2018-Feb-10 02:29N 57°31' E 010°41'0 0.0
2018-Feb-10 01:59N 57°31' E 010°41'0 0.0
2018-Feb-10 01:29N 57°31' E 010°41'0 0.0
2018-Feb-10 00:56N 57°31' E 010°41'0 0.0
2018-Feb-10 00:29N 57°31' E 010°41'0 0.0
2018-Feb-09 23:59N 57°31' E 010°41'0 0.0
2018-Feb-09 23:29N 57°31' E 010°41'0 0.0
2018-Feb-09 22:59N 57°31' E 010°41'0 0.0
2018-Feb-09 22:41N 57°31' E 010°41'1 0.1
2018-Feb-09 07:30N 57°32' E 010°41'17 6.9
2018-Feb-09 05:00N 57°48' E 010°27'413 9.5
2018-Feb-07 09:28N 51°55' E 004°13'0 0.0
2018-Feb-07 08:58N 51°55' E 004°13'0 0.0
2018-Feb-07 08:28N 51°55' E 004°13'0 0.0
2018-Feb-07 07:58N 51°55' E 004°13'0 0.0
2018-Feb-07 07:28N 51°55' E 004°13'0 0.0
2018-Feb-07 06:58N 51°55' E 004°13'0 0.0
2018-Feb-07 06:28N 51°55' E 004°13'0 0.0
2018-Feb-07 05:58N 51°55' E 004°13'0 0.0
2018-Feb-07 05:28N 51°55' E 004°13'0 0.0
2018-Feb-07 04:58N 51°55' E 004°13'0 0.0
2018-Feb-07 04:28N 51°55' E 004°13'0 0.0
2018-Feb-07 03:58N 51°55' E 004°13'0 0.0
2018-Feb-07 03:28N 51°55' E 004°13'0 0.0
2018-Feb-07 02:58N 51°55' E 004°13'0 0.0
2018-Feb-07 02:28N 51°55' E 004°13'0 0.0
2018-Feb-07 01:58N 51°55' E 004°13'0 0.0
2018-Feb-07 01:28N 51°55' E 004°13'0 0.0
2018-Feb-07 00:58N 51°55' E 004°13'0 0.0
2018-Feb-07 00:28N 51°55' E 004°13'0 0.0
2018-Feb-06 23:58N 51°55' E 004°13'0 0.0
2018-Feb-06 23:28N 51°55' E 004°13'0 0.0
2018-Feb-06 22:58N 51°55' E 004°13'0 0.0
2018-Feb-06 22:25N 51°55' E 004°13'0 0.0
2018-Feb-06 21:58N 51°55' E 004°13'0 0.0
2018-Feb-06 21:28N 51°55' E 004°13'0 0.0
2018-Feb-06 20:58N 51°55' E 004°13'0 0.0
2018-Feb-06 20:28N 51°55' E 004°13'0 0.0
2018-Feb-06 19:58N 51°55' E 004°13'0 0.0
2018-Feb-06 19:28N 51°55' E 004°13'0 0.0
2018-Feb-06 18:58N 51°55' E 004°13'0 0.0
2018-Feb-06 18:28N 51°55' E 004°13'0 0.0
2018-Feb-06 17:58N 51°55' E 004°13'0 0.0
2018-Feb-06 17:28N 51°55' E 004°13'0 0.0
2018-Feb-06 16:58N 51°55' E 004°13'  

Dump ship's entire track history